Flight Track Log - Related Links

Times and Time Zones

All times are in EDT time to prevent confusion due to time zone crossing. See the JBU185 flight status page for this flight to view local times or setup timezone preferences in your user account.

Time Position Orientation Groundspeed Altitude Reporting Facility
EDT Latitude Longitude Course Direction KTS MPH feet Rate Location/Type
Sun 05:03:03 PM 40.6500 -73.8500 273° West 200 230 1,800  Level New York TRACON
Sun 05:04:03 PM 40.6000 -73.9167 225° Southwest 262 302 3,400 2,200 Climbing New York TRACON
Sun 05:05:03 PM 40.5333 -73.9667 210° Southwest 276 318 6,200 2,850 Climbing New York TRACON
Sun 05:06:03 PM 40.4667 -74.0167 210° Southwest 290 334 9,100 1,767 Climbing New York TRACON
Sun 05:07:00 PM 39.9542 -77.5302 273° West  Level FlightAware Approximate
Sun 05:08:00 PM 39.9596 -77.6589 273° West  Level FlightAware Approximate
Sun 05:08:03 PM 40.3500 -74.2000 230° Southwest 355 409 11,500  Level New York TRACON
Sun 05:08:29 PM 40.3289 -74.2531 242° Southwest 362 417 12,300 2,897 Climbing New York Center
Sun 05:09:30 PM 40.2803 -74.3486 236° Southwest 356 410 15,700 2,370 Climbing New York Center
Sun 05:10:28 PM 40.2358 -74.4361 236° Southwest 352 405 17,000 661 Climbing New York Center
Sun 05:11:28 PM 40.1967 -74.5589 247° West 333 383 17,000 500 Level New York Center
Sun 05:12:28 PM 40.1886 -74.6781 265° West 333 383 18,000 1,426 Climbing New York Center
Sun 05:13:30 PM 40.1758 -74.8022 262° West 343 395 19,900 1,750 Climbing New York Center
Sun 05:14:28 PM 40.1694 -74.9269 266° West 343 395 21,500 1,059 Climbing New York Center
Sun 05:15:29 PM 40.1606 -75.0594 265° West 355 409 22,000 843 Climbing New York Center
Sun 05:16:29 PM 40.1472 -75.1972 263° West 374 430 23,200 1,261 Climbing New York Center
Sun 05:17:28 PM 40.1356 -75.3347 264° West 385 443 24,500 1,210 Climbing New York Center
Sun 05:18:28 PM 40.1239 -75.4753 264° West 385 443 25,600 992 Climbing New York Center
Sun 05:19:29 PM 40.1119 -75.6183 264° West 390 449 26,500 843 Climbing New York Center
Sun 05:20:29 PM 40.0994 -75.7639 264° West 390 449 27,300 1,000 Climbing New York Center
Sun 05:21:29 PM 40.0872 -75.9069 264° West 403 464 28,500 1,119 Climbing New York Center
Sun 05:22:27 PM 40.0747 -76.0497 264° West 408 470 29,500 1,119 Climbing New York Center
Sun 05:23:27 PM 40.0622 -76.1872 263° West 403 464 30,700 1,041 Climbing New York Center
Sun 05:24:28 PM 40.0436 -76.3161 259° West 398 458 31,600 645 Climbing New York Center
Sun 05:25:28 PM 40.0328 -76.4533 264° West 398 458 32,000 200 Climbing New York Center
Sun 05:26:28 PM 40.0200 -76.5881 263° West 387 445 32,000  Level New York Center
Sun 05:27:29 PM 40.0069 -76.7250 263° West 382 440 32,000  Level New York Center
Sun 05:28:29 PM 39.9939 -76.8594 263° West 382 440 32,000  Level New York Center
Sun 05:29:30 PM 39.9806 -76.9967 263° West 382 440 32,000  Level New York Center
Sun 05:30:27 PM 39.9667 -77.1361 263° West 387 445 32,000  Level New York Center
Sun 05:32:04 PM 39.9525 -77.3547 265° West 380 437 32,000  Level Cleveland Center
Sun 05:33:04 PM 39.9586 -77.4981 273° West 386 444 32,000  Level Cleveland Center
Sun 05:34:04 PM 39.9644 -77.6414 273° West 397 457 32,000  Level Cleveland Center
Sun 05:35:04 PM 39.9681 -77.7819 272° West 397 457 32,000  Level Cleveland Center
Sun 05:36:04 PM 39.9736 -77.9253 273° West 402 463 32,000  Level Cleveland Center
Sun 05:37:04 PM 39.9769 -78.0689 272° West 402 463 32,000  Level Cleveland Center
Sun 05:38:04 PM 39.9800 -78.2097 272° West 402 463 32,000  Level Cleveland Center
Sun 05:39:04 PM 39.9811 -78.3722 271° West 407 468 32,000  Level Cleveland Center
Sun 05:40:04 PM 39.9839 -78.5183 271° West 407 468 32,000  Level Cleveland Center
Sun 05:41:04 PM 39.9864 -78.6647 271° West 407 468 32,000  Level Cleveland Center
Sun 05:42:04 PM 39.9908 -78.8108 272° West 402 463 32,000  Level Cleveland Center
Sun 05:43:04 PM 39.9931 -78.9572 271° West 402 463 32,000  Level Cleveland Center
Sun 05:44:04 PM 40.0011 -79.0897 275° West 402 463 32,000  Level Cleveland Center
Sun 05:45:04 PM 40.0031 -79.2361 271° West 402 463 32,000  Level Cleveland Center
Sun 05:46:04 PM 40.0044 -79.3825 271° West 402 463 32,000  Level Cleveland Center
Sun 05:47:04 PM 40.0061 -79.5394 271° West 402 463 32,000  Level Cleveland Center
Sun 05:48:04 PM 40.0094 -79.6833 272° West 402 463 32,000  Level Cleveland Center
Sun 05:49:04 PM 40.0106 -79.8269 271° West 402 463 32,000  Level Cleveland Center
Sun 05:50:04 PM 40.0133 -79.9706 271° West 402 463 32,000  Level Cleveland Center
Sun 05:51:04 PM 40.0161 -80.1169 271° West 402 463 32,000  Level Cleveland Center
Sun 05:52:04 PM 40.0167 -80.2633 270° West 402 463 32,000  Level Cleveland Center
Sun 05:53:04 PM 40.0192 -80.4122 271° West 402 463 32,000  Level Cleveland Center
Sun 05:54:04 PM 40.0192 -80.5614 270° West 407 468 32,000  Level Cleveland Center
Sun 05:55:04 PM 40.0192 -80.7078 270° West 407 468 32,000  Level Cleveland Center
Sun 05:56:04 PM 40.0211 -80.8542 271° West 407 468 32,000  Level Cleveland Center
Sun 05:57:04 PM 40.0183 -81.0033 269° West 407 468 32,000  Level Cleveland Center
Sun 05:58:53 PM 40.0094 -81.2664 268° West 412 474 32,000  Level Indianapolis Center
Sun 05:59:55 PM 40.0072 -81.4172 269° West 413 475 32,000  Level Indianapolis Center
Sun 06:00:57 PM 40.0044 -81.5692 269° West 414 476 32,000  Level Indianapolis Center
Sun 06:01:59 PM 40.0006 -81.7219 268° West 417 480 32,000  Level Indianapolis Center
Sun 06:03:01 PM 39.9972 -81.8942 269° West 418 481 32,000  Level Indianapolis Center
Sun 06:04:03 PM 39.9942 -82.0461 269° West 416 479 32,000  Level Indianapolis Center
Sun 06:05:06 PM 39.9900 -82.1989 268° West 418 481 32,000  Level Indianapolis Center
Sun 06:06:08 PM 39.9867 -82.3500 268° West 416 479 32,000  Level Indianapolis Center
Sun 06:07:10 PM 39.9817 -82.5022 268° West 415 478 32,000  Level Indianapolis Center
Sun 06:08:12 PM 39.9778 -82.6531 268° West 413 475 32,000 -48 Level Indianapolis Center
Sun 06:09:14 PM 39.9722 -82.8294 268° West 414 476 31,900  Descending Indianapolis Center
Sun 06:10:16 PM 39.9678 -82.9817 268° West 417 480 32,000 48 Climbing Indianapolis Center
Sun 06:11:18 PM 39.9633 -83.1325 268° West 416 479 32,000  Level Indianapolis Center
Sun 06:12:20 PM 39.9603 -83.2842 269° West 416 479 32,000  Level Indianapolis Center
Sun 06:13:22 PM 39.9550 -83.4339 267° West 417 480 32,000 -48 Level Indianapolis Center
Sun 06:14:24 PM 39.9481 -83.6064 267° West 414 476 31,900  Descending Indianapolis Center
Sun 06:15:26 PM 39.9428 -83.7539 267° West 411 473 32,000 48 Climbing Indianapolis Center
Sun 06:16:28 PM 39.9372 -83.9039 267° West 413 475 32,000 -48 Level Indianapolis Center
Sun 06:17:30 PM 39.9317 -84.0547 267° West 413 475 31,900 -48 Descending Indianapolis Center
Sun 06:18:32 PM 39.9250 -84.2039 267° West 412 474 31,900 48 Level Indianapolis Center
Sun 06:19:34 PM 39.9194 -84.3561 267° West 417 480 32,000 48 Climbing Indianapolis Center
Sun 06:20:36 PM 39.9108 -84.5347 266° West 422 486 32,000  Level Indianapolis Center
Sun 06:21:38 PM 39.9036 -84.6883 267° West 422 486 32,000  Level Indianapolis Center
Sun 06:22:40 PM 39.8961 -84.8428 266° West 422 486 32,000  Level Indianapolis Center
Sun 06:23:42 PM 39.8897 -84.9978 267° West 426 490 32,000  Level Indianapolis Center
Sun 06:24:44 PM 39.8814 -85.1528 266° West 426 490 32,000  Level Indianapolis Center
Sun 06:25:46 PM 39.8731 -85.3086 266° West 427 491 32,000  Level Indianapolis Center
Sun 06:26:48 PM 39.8653 -85.4644 266° West 427 491 32,000  Level Indianapolis Center
Sun 06:27:50 PM 39.8542 -85.6458 265° West 428 493 32,000  Level Indianapolis Center
Sun 06:28:53 PM 39.8458 -85.8008 266° West 428 493 32,000  Level Indianapolis Center
Sun 06:29:55 PM 39.8381 -85.9617 266° West 428 493 32,000  Level Indianapolis Center
Sun 06:30:57 PM 39.8283 -86.1153 265° West 427 491 32,000  Level Indianapolis Center
Sun 06:31:59 PM 39.8194 -86.2703 266° West 428 493 32,000  Level Indianapolis Center
Sun 06:33:01 PM 39.8142 -86.4242 267° West 426 490 32,000  Level Indianapolis Center
Sun 06:34:03 PM 39.8181 -86.5789 272° West 427 491 32,000 145 Level Indianapolis Center
Sun 06:35:05 PM 39.8217 -86.7339 272° West 428 493 32,300 629 Climbing Indianapolis Center
Sun 06:36:07 PM 39.8247 -86.9181 271° West 425 489 33,300 823 Climbing Indianapolis Center
Sun 06:37:09 PM 39.8281 -87.0708 272° West 423 487 34,000 339 Climbing Indianapolis Center
Sun 06:38:11 PM 39.8200 -87.2217 266° West 419 482 34,000  Level Indianapolis Center
Sun 06:39:13 PM 39.8075 -87.3739 264° West 421 484 34,000  Level Indianapolis Center
Sun 06:40:15 PM 39.7947 -87.5261 264° West 423 487 34,000  Level Indianapolis Center
Sun 06:41:17 PM 39.7828 -87.6789 264° West 424 488 34,000  Level Indianapolis Center
Sun 06:42:19 PM 39.7700 -87.8311 264° West 424 488 34,000  Level Indianapolis Center
Sun 06:43:21 PM 39.7536 -88.0119 263° West 422 486 34,000  Level Indianapolis Center
Sun 06:44:31 PM 39.7417 -88.1631 264° West 422 486 34,000  Level Kansas City Center
Sun 06:45:32 PM 39.7278 -88.3175 263° West 426 490 34,000  Level Kansas City Center
Sun 06:46:33 PM 39.7131 -88.4714 263° West 428 493 34,000  Level Kansas City Center
Sun 06:47:36 PM 39.6964 -88.6561 263° West 429 494 34,000  Level Kansas City Center
Sun 06:48:37 PM 39.6806 -88.8100 262° West 430 495 34,000  Level Kansas City Center
Sun 06:49:40 PM 39.6672 -88.9642 264° West 430 495 34,000  Level Kansas City Center
Sun 06:50:41 PM 39.6517 -89.1183 263° West 430 495 34,000  Level Kansas City Center
Sun 06:51:42 PM 39.6378 -89.2656 263° West 430 495 34,000  Level Kansas City Center
Sun 06:52:46 PM 39.6189 -89.4461 262° West 425 489 34,000  Level Kansas City Center
Sun 06:53:48 PM 39.6050 -89.5986 263° West 427 491 34,000  Level Kansas City Center
Sun 06:54:49 PM 39.5897 -89.7506 263° West 427 491 34,000  Level Kansas City Center
Sun 06:55:50 PM 39.5733 -89.9025 262° West 428 493 34,000  Level Kansas City Center
Sun 06:56:52 PM 39.5578 -90.0539 262° West 427 491 34,000  Level Kansas City Center
Sun 06:57:56 PM 39.5419 -90.2064 262° West 428 493 34,000  Level Kansas City Center
Sun 06:58:57 PM 39.5228 -90.3889 262° West 430 495 34,000  Level Kansas City Center
Sun 06:59:58 PM 39.5064 -90.5392 262° West 426 490 34,000  Level Kansas City Center
Sun 07:01:02 PM 39.4897 -90.6903 262° West 427 491 34,000  Level Kansas City Center
Sun 07:02:03 PM 39.4728 -90.8392 262° West 424 488 34,000  Level Kansas City Center
Sun 07:03:06 PM 39.4558 -90.9886 262° West 422 486 34,000  Level Kansas City Center
Sun 07:04:08 PM 39.4353 -91.1672 262° West 420 483 34,000  Level Kansas City Center
Sun 07:05:09 PM 39.4189 -91.3156 262° West 420 483 34,000  Level Kansas City Center
Sun 07:06:12 PM 39.4006 -91.4636 261° West 419 482 34,000  Level Kansas City Center
Sun 07:07:13 PM 39.3836 -91.6114 262° West 418 481 34,000  Level Kansas City Center
Sun 07:08:17 PM 39.3667 -91.7650 262° West 420 483 34,000  Level Kansas City Center
Sun 07:09:18 PM 39.3481 -91.9150 261° West 424 488 34,000  Level Kansas City Center
Sun 07:10:18 PM 39.3264 -92.0931 261° West 421 484 34,000  Level Kansas City Center
Sun 07:11:21 PM 39.3081 -92.2400 261° West 418 481 34,000  Level Kansas City Center
Sun 07:12:24 PM 39.2892 -92.3883 261° West 419 482 34,000  Level Kansas City Center
Sun 07:13:25 PM 39.2706 -92.5350 261° West 418 481 34,000  Level Kansas City Center
Sun 07:14:27 PM 39.2517 -92.6772 260° West 416 479 34,000  Level Kansas City Center
Sun 07:15:29 PM 39.2319 -92.8269 260° West 414 476 34,000  Level Kansas City Center
Sun 07:16:31 PM 39.2092 -93.0058 261° West 420 483 34,000  Level Kansas City Center
Sun 07:17:35 PM 39.1897 -93.1497 260° West 416 479 34,000  Level Kansas City Center
Sun 07:18:36 PM 39.1703 -93.2972 260° West 417 480 34,000  Level Kansas City Center
Sun 07:19:37 PM 39.1481 -93.4669 260° West 421 484 34,000  Level Kansas City Center
Sun 07:20:38 PM 39.1281 -93.6103 260° West 422 486 34,000  Level Kansas City Center
Sun 07:21:42 PM 39.1086 -93.7522 260° West 419 482 34,000  Level Kansas City Center
Sun 07:22:42 PM 39.0858 -93.9167 260° West 417 480 34,000  Level Kansas City Center
Sun 07:23:46 PM 39.0661 -94.0572 260° West 416 479 34,000  Level Kansas City Center
Sun 07:24:47 PM 39.0428 -94.2217 260° West 417 480 34,000  Level Kansas City Center
Sun 07:25:48 PM 39.0233 -94.3619 260° West 415 478 34,000  Level Kansas City Center
Sun 07:26:53 PM 38.9928 -94.5250 256° West 418 481 34,000  Level Kansas City Center
Sun 07:27:54 PM 38.9658 -94.6631 256° West 416 479 34,000  Level Kansas City Center
Sun 07:28:54 PM 38.9342 -94.8247 256° West 416 479 34,000  Level Kansas City Center
Sun 07:29:58 PM 38.9078 -94.9639 256° West 416 479 34,000  Level Kansas City Center
Sun 07:30:58 PM 38.8808 -95.1039 256° West 418 481 34,000  Level Kansas City Center
Sun 07:32:01 PM 38.8489 -95.2667 256° West 418 481 34,000  Level Kansas City Center
Sun 07:33:03 PM 38.8217 -95.4031 256° West 413 475 34,000  Level Kansas City Center
Sun 07:34:07 PM 38.7892 -95.5631 255° West 411 473 34,000  Level Kansas City Center
Sun 07:35:07 PM 38.7631 -95.6992 256° West 409 471 34,000  Level Kansas City Center
Sun 07:36:11 PM 38.7300 -95.8589 255° West 415 478 34,000  Level Kansas City Center
Sun 07:37:12 PM 38.7028 -95.9958 256° West 414 476 34,000  Level Kansas City Center
Sun 07:38:15 PM 38.6742 -96.1319 255° West 413 475 34,000  Level Kansas City Center
Sun 07:39:17 PM 38.6425 -96.2922 256° West 416 479 34,000  Level Kansas City Center
Sun 07:40:17 PM 38.6133 -96.4283 255° West 415 478 34,000  Level Kansas City Center
Sun 07:41:20 PM 38.5803 -96.5892 255° West 419 482 34,000  Level Kansas City Center
Sun 07:42:23 PM 38.5511 -96.7258 255° West 418 481 34,000  Level Kansas City Center
Sun 07:43:24 PM 38.5186 -96.8800 255° West 425 489 34,000  Level Kansas City Center
Sun 07:44:25 PM 38.4875 -97.0231 255° West 420 483 34,000  Level Kansas City Center
Sun 07:45:29 PM 38.4567 -97.1669 255° West 421 484 34,000  Level Kansas City Center
Sun 07:46:30 PM 38.4264 -97.3083 255° West 416 479 34,000  Level Kansas City Center
Sun 07:47:31 PM 38.3892 -97.4792 255° West 418 481 34,000  Level Kansas City Center
Sun 07:48:35 PM 38.3583 -97.6192 254° West 414 476 34,000  Level Kansas City Center
Sun 07:49:35 PM 38.3281 -97.7572 254° West 410 472 34,000  Level Kansas City Center
Sun 07:50:39 PM 38.2975 -97.8936 254° West 406 467 34,000  Level Kansas City Center
Sun 07:51:41 PM 38.2672 -98.0294 254° West 405 466 34,000  Level Kansas City Center
Sun 07:52:41 PM 38.2314 -98.1922 254° West 402 463 34,000  Level Kansas City Center
Sun 07:53:45 PM 38.1992 -98.3292 253° West 406 467 34,000  Level Kansas City Center
Sun 07:54:45 PM 38.1689 -98.4650 254° West 402 463 34,000  Level Kansas City Center
Sun 07:55:47 PM 38.1397 -98.5994 255° West 399 459 34,000  Level Kansas City Center
Sun 07:56:50 PM 38.1069 -98.7331 253° West 398 458 34,000  Level Kansas City Center
Sun 07:57:51 PM 38.0708 -98.8947 254° West 397 457 34,000  Level Kansas City Center
Sun 07:58:55 PM 38.0397 -99.0294 254° West 398 458 34,000  Level Kansas City Center
Sun 07:59:56 PM 38.0064 -99.1644 253° West 401 461 34,000  Level Kansas City Center
Sun 08:00:59 PM 37.9744 -99.2994 253° West 402 463 34,000  Level Kansas City Center
Sun 08:01:59 PM 37.9436 -99.4350 254° West 401 461 34,000  Level Kansas City Center
Sun 08:03:02 PM 37.9050 -99.5914 253° West 397 457 34,000  Level Kansas City Center
Sun 08:04:03 PM 37.8739 -99.7206 253° West 400 460 34,000  Level Kansas City Center
Sun 08:05:06 PM 37.8381 -99.8703 253° West 399 459 34,000 48 Level Kansas City Center
Sun 08:06:07 PM 37.8064 -100.0019 253° West 406 467 34,100  Climbing Kansas City Center
Sun 08:07:10 PM 37.7744 -100.1314 253° West 404 465 34,000 -48 Descending Kansas City Center
Sun 08:08:12 PM 37.7372 -100.2803 252° West 400 460 34,000  Level Kansas City Center
Sun 08:09:14 PM 37.7061 -100.4094 253° West 400 460 34,000  Level Kansas City Center
Sun 08:10:14 PM 37.6700 -100.5525 252° West 398 458 34,000  Level Kansas City Center
Sun 08:11:17 PM 37.6367 -100.6869 253° West 400 460 34,000  Level Kansas City Center
Sun 08:12:18 PM 37.6028 -100.8225 253° West 403 464 34,000  Level Kansas City Center
Sun 08:13:21 PM 37.5675 -100.9594 252° West 409 471 34,000  Level Kansas City Center
Sun 08:14:22 PM 37.5336 -101.0950 253° West 408 470 34,000  Level Kansas City Center
Sun 08:15:25 PM 37.4922 -101.2569 252° West 404 465 34,000  Level Kansas City Center
Sun 08:16:26 PM 37.4592 -101.3878 252° West 409 471 34,000  Level Kansas City Center
Sun 08:17:27 PM 37.4256 -101.5175 252° West 408 470 34,000  Level Kansas City Center
Sun 08:18:30 PM 37.3861 -101.6697 252° West 410 472 34,000  Level Kansas City Center
Sun 08:19:31 PM 37.3517 -101.7989 251° West 408 470 34,000  Level Kansas City Center
Sun 08:20:10 PM 37.3253 -101.9086 253° West 410 472 34,000  Level Albuquerque Center
Sun 08:21:12 PM 37.2914 -102.0378 252° West 407 468 34,000  Level Albuquerque Center
Sun 08:22:13 PM 37.2525 -102.1811 251° West 406 467 34,000  Level Albuquerque Center
Sun 08:23:15 PM 37.2197 -102.3100 252° West 406 467 34,000  Level Albuquerque Center
Sun 08:24:17 PM 37.1783 -102.4603 251° West 407 468 34,000  Level Albuquerque Center
Sun 08:25:18 PM 37.1428 -102.5900 251° West 410 472 34,000  Level Albuquerque Center
Sun 08:26:20 PM 37.1086 -102.7192 252° West 408 470 34,000  Level Albuquerque Center
Sun 08:27:22 PM 37.0667 -102.8692 251° West 407 468 34,000  Level Albuquerque Center
Sun 08:28:23 PM 37.0306 -102.9992 251° West 411 473 34,000  Level Albuquerque Center
Sun 08:29:25 PM 36.9903 -103.1472 251° West 404 465 34,000  Level Albuquerque Center
Sun 08:30:27 PM 36.9564 -103.2728 251° West 400 460 34,000  Level Albuquerque Center
Sun 08:31:28 PM 36.9214 -103.3986 251° West 399 459 34,000  Level Albuquerque Center
Sun 08:32:30 PM 36.8794 -103.5481 251° West 405 466 34,000  Level Albuquerque Center
Sun 08:33:31 PM 36.8436 -103.6769 251° West 407 468 34,000  Level Albuquerque Center
Sun 08:34:33 PM 36.8025 -103.8208 250° West 398 458 34,000  Level Albuquerque Center
Sun 08:35:34 PM 36.7689 -103.9422 251° West 389 448 34,000 49 Level Albuquerque Center
Sun 08:36:36 PM 36.7319 -104.0678 250° West 396 456 34,100  Climbing Albuquerque Center
Sun 08:37:38 PM 36.6897 -104.2158 250° West 402 463 34,000 -49 Descending Albuquerque Center
Sun 08:38:39 PM 36.6503 -104.3497 250° West 400 460 34,000  Level Albuquerque Center
Sun 08:39:41 PM 36.6128 -104.4781 250° West 396 456 34,000  Level Albuquerque Center
Sun 08:40:42 PM 36.5753 -104.6086 250° West 397 457 34,000  Level Albuquerque Center
Sun 08:41:44 PM 36.5383 -104.7375 250° West 395 455 34,000  Level Albuquerque Center
Sun 08:42:45 PM 36.5008 -104.8656 250° West 393 452 34,000  Level Albuquerque Center
Sun 08:43:47 PM 36.4633 -104.9942 250° West 393 452 34,000  Level Albuquerque Center
Sun 08:44:48 PM 36.4247 -105.1217 249° West 393 452 34,000 49 Level Albuquerque Center
Sun 08:45:50 PM 36.3844 -105.2561 250° West 406 467 34,100  Climbing Albuquerque Center
Sun 08:46:51 PM 36.3389 -105.4092 250° West 404 465 34,000  Descending Albuquerque Center
Sun 08:47:53 PM 36.2986 -105.5394 249° West 403 464 34,100  Climbing Albuquerque Center
Sun 08:48:54 PM 36.2619 -105.6592 249° West 386 444 34,000 -49 Descending Albuquerque Center
Sun 08:49:56 PM 36.2253 -105.7822 250° West 381 438 34,000  Level Albuquerque Center
Sun 08:50:57 PM 36.1889 -105.9089 250° West 389 448 34,000  Level Albuquerque Center
Sun 08:51:59 PM 36.1492 -106.0328 248° West 390 449 34,000  Level Albuquerque Center
Sun 08:53:00 PM 36.1103 -106.1592 249° West 393 452 34,000  Level Albuquerque Center
Sun 08:54:02 PM 36.0722 -106.2917 250° West 405 466 34,000  Level Albuquerque Center
Sun 08:55:03 PM 36.0317 -106.4217 249° West 407 468 34,000  Level Albuquerque Center
Sun 08:56:05 PM 35.9908 -106.5517 249° West 408 470 34,000  Level Albuquerque Center
Sun 08:57:06 PM 35.9433 -106.7031 249° West 400 460 34,000  Level Albuquerque Center
Sun 08:59:09 PM 35.8597 -106.9675 249° West 401 461 34,000  Level Albuquerque Center
Sun 09:00:11 PM 35.8203 -107.0911 249° West 404 465 34,000  Level Albuquerque Center
Sun 09:01:12 PM 35.7744 -107.2336 248° West 402 463 34,000  Level Albuquerque Center
Sun 09:02:14 PM 35.7361 -107.3542 249° West 398 458 34,000  Level Albuquerque Center
Sun 09:03:15 PM 35.6983 -107.4742 249° West 394 453 34,000  Level Albuquerque Center
Sun 09:04:17 PM 35.6536 -107.6150 249° West 394 453 34,000  Level Albuquerque Center
Sun 09:05:18 PM 35.6139 -107.7353 248° West 395 455 34,000 390 Level Albuquerque Center
Sun 09:06:20 PM 35.5664 -107.8794 248° West 402 463 34,800 829 Climbing Albuquerque Center
Sun 09:07:21 PM 35.5267 -108.0033 249° West 406 467 35,700 590 Climbing Albuquerque Center
Sun 09:08:22 PM 35.4861 -108.1242 248° West 403 464 36,000 146 Climbing Albuquerque Center
Sun 09:09:24 PM 35.4411 -108.2636 248° West 396 456 36,000  Level Albuquerque Center
Sun 09:10:25 PM 35.4014 -108.3828 248° West 394 453 36,000  Level Albuquerque Center
Sun 09:11:27 PM 35.3558 -108.5197 248° West 389 448 36,000  Level Albuquerque Center
Sun 09:12:28 PM 35.3167 -108.6381 248° West 391 450 36,000  Level Albuquerque Center
Sun 09:13:30 PM 35.2772 -108.7542 247° West 388 447 36,000  Level Albuquerque Center
Sun 09:14:31 PM 35.2100 -108.8836 238° Southwest 402 463 36,000  Level Albuquerque Center
Sun 09:15:33 PM 35.1483 -108.9936 236° Southwest 408 470 36,000  Level Albuquerque Center
Sun 09:16:34 PM 35.0869 -109.1033 236° Southwest 408 470 36,000  Level Albuquerque Center
Sun 09:17:36 PM 35.0139 -109.2303 235° Southwest 408 470 36,000  Level Albuquerque Center
Sun 09:18:37 PM 34.9517 -109.3386 235° Southwest 407 468 36,000  Level Albuquerque Center
Sun 09:19:38 PM 34.8783 -109.4658 235° Southwest 410 472 36,000  Level Albuquerque Center
Sun 09:20:40 PM 34.8147 -109.5719 234° Southwest 406 467 36,000  Level Albuquerque Center
Sun 09:21:41 PM 34.7531 -109.6822 236° Southwest 408 470 36,000  Level Albuquerque Center
Sun 09:22:43 PM 34.6783 -109.8097 235° Southwest 413 475 36,000  Level Albuquerque Center
Sun 09:23:44 PM 34.6156 -109.9192 235° Southwest 412 474 36,000  Level Albuquerque Center
Sun 09:24:46 PM 34.5419 -110.0478 235° Southwest 415 478 36,000  Level Albuquerque Center
Sun 09:25:47 PM 34.4783 -110.1569 235° Southwest 414 476 36,000  Level Albuquerque Center
Sun 09:26:48 PM 34.4042 -110.2847 235° Southwest 415 478 36,000  Level Albuquerque Center
Sun 09:27:50 PM 34.3386 -110.3947 234° Southwest 418 481 36,000  Level Albuquerque Center
Sun 09:28:51 PM 34.2772 -110.5081 237° Southwest 424 488 36,000  Level Albuquerque Center
Sun 09:29:53 PM 34.1958 -110.6356 232° Southwest 427 491 36,000  Level Albuquerque Center
Sun 09:30:54 PM 34.1367 -110.7369 235° Southwest 423 487 36,000  Level Albuquerque Center
Sun 09:31:55 PM 34.0683 -110.8519 234° Southwest 422 486 36,000  Level Albuquerque Center
Sun 09:32:57 PM 34.0000 -110.9664 234° Southwest 421 484 36,000  Level Albuquerque Center
Sun 09:33:58 PM 33.9194 -111.1036 235° Southwest 416 479 36,000  Level Albuquerque Center
Sun 09:34:59 PM 33.8514 -111.2164 234° Southwest 416 479 36,000  Level Albuquerque Center
Sun 09:36:01 PM 33.7825 -111.3294 234° Southwest 418 481 36,000  Level Albuquerque Center
Sun 09:37:02 PM 33.7142 -111.4439 234° Southwest 418 481 36,000  Level Albuquerque Center
Sun 09:38:03 PM 33.6447 -111.5581 234° Southwest 419 482 36,000  Level Albuquerque Center
Sun 09:39:05 PM 33.5756 -111.6725 234° Southwest 421 484 36,000  Level Albuquerque Center
Sun 09:40:06 PM 33.5058 -111.7858 234° Southwest 421 484 36,000  Level Albuquerque Center
Sun 09:41:07 PM 33.4439 -111.9022 237° Southwest 419 482 36,000  Level Albuquerque Center
Sun 09:42:09 PM 33.4208 -112.0336 258° West 405 466 36,000  Level Albuquerque Center
Sun 09:43:10 PM 33.3969 -112.1650 258° West 403 464 36,000  Level Albuquerque Center
Sun 09:44:11 PM 33.3722 -112.2958 257° West 403 464 36,000  Level Albuquerque Center
Sun 09:45:12 PM 33.3486 -112.4289 258° West 408 470 36,000  Level Albuquerque Center
Sun 09:46:14 PM 33.3192 -112.5867 257° West 406 467 36,000  Level Albuquerque Center
Sun 09:47:15 PM 33.2975 -112.7128 258° West 407 468 36,000  Level Albuquerque Center
Sun 09:48:16 PM 33.2731 -112.8439 257° West 407 468 36,000  Level Albuquerque Center
Sun 09:49:18 PM 33.2492 -112.9747 258° West 406 467 36,000 -488 Level Albuquerque Center
Sun 09:50:19 PM 33.2239 -113.1067 257° West 409 471 35,000 -984 Descending Albuquerque Center
Sun 09:51:20 PM 33.1992 -113.2369 257° West 407 468 34,000 -488 Descending Albuquerque Center
Sun 09:52:22 PM 33.1692 -113.3989 258° West 415 478 34,000  Level Albuquerque Center
Sun 09:53:23 PM 33.1425 -113.5331 257° West 418 481 34,000  Level Albuquerque Center
Sun 09:54:24 PM 33.1172 -113.6669 257° West 417 480 34,000  Level Albuquerque Center
Sun 09:55:25 PM 33.0914 -113.7997 257° West 415 478 34,000  Level Albuquerque Center
Sun 09:56:27 PM 33.0658 -113.9342 257° West 417 480 34,000  Level Albuquerque Center
Sun 09:57:28 PM 33.0397 -114.0669 257° West 416 479 34,000 -295 Level Albuquerque Center
Sun 09:58:29 PM 33.0122 -114.2022 256° West 419 482 33,400 -787 Descending Albuquerque Center
Sun 09:59:30 PM 32.9875 -114.3367 258° West 419 482 32,400 -1,033 Descending Albuquerque Center
Sun 10:00:31 PM 32.9569 -114.4911 257° West 428 493 31,300 -976 Descending Los Angeles Center
Sun 10:01:33 PM 32.9297 -114.6278 257° West 426 490 30,400 -968 Descending Los Angeles Center
Sun 10:02:35 PM 32.9011 -114.7667 256° West 432 497 29,300 -968 Descending Los Angeles Center
Sun 10:03:37 PM 32.8742 -114.9075 257° West 435 501 28,400 -1,073 Descending Los Angeles Center
Sun 10:04:38 PM 32.8378 -115.0783 256° West 443 510 27,100 -1,073 Descending Los Angeles Center
Sun 10:05:40 PM 32.8081 -115.2194 256° West 441 507 26,200 -919 Descending Los Angeles Center
Sun 10:06:42 PM 32.7792 -115.3586 256° West 436 502 25,200 -968 Descending Los Angeles Center
Sun 10:07:44 PM 32.7506 -115.4958 256° West 430 495 24,200 -1,024 Descending Los Angeles Center
Sun 10:08:45 PM 32.7497 -115.6233 270° West 393 452 23,100 -1,512 Descending Los Angeles Center
Sun 10:09:47 PM 32.7533 -115.7489 272° West 382 440 21,100 -1,935 Descending Los Angeles Center
Sun 10:10:49 PM 32.7572 -115.8706 272° West 372 428 19,100 -1,984 Descending Los Angeles Center
Sun 10:11:51 PM 32.7597 -115.9894 271° West 362 417 17,000 -2,146 Descending Los Angeles Center
Sun 10:12:52 PM 32.7628 -116.1289 272° West 352 405 14,700 -2,098 Descending Los Angeles Center
Sun 10:13:54 PM 32.7656 -116.2422 272° West 344 396 12,700 -2,081 Descending Los Angeles Center
Sun 10:14:56 PM 32.7567 -116.3514 264° West 329 379 10,400 -1,403 Descending Los Angeles Center
Sun 10:15:58 PM 32.7408 -116.4583 260° West 323 372 9,800 -537 Descending Los Angeles Center
Sun 10:16:59 PM 32.7272 -116.5544 260° West 302 348 9,300 -829 Descending Los Angeles Center
Sun 10:18:01 PM 32.7139 -116.6472 260° West 287 330 8,100 -1,355 Descending Los Angeles Center
Sun 10:19:03 PM 32.7092 -116.7400 267° West 283 326 6,500 -968 Descending Los Angeles Center
Sun 10:20:05 PM 32.7064 -116.8269 268° West 271 312 6,100 -771 Descending Los Angeles Center
Sun 10:20:52 PM 32.6833 -116.9000 249° West 225 259 5,100 -1,333 Descending Southern California TRACON
Sun 10:21:53 PM 32.6833 -116.9500 270° West 203 234 3,700 -1,091 Descending Southern California TRACON
Sun 10:22:53 PM 32.7000 -117.0167 287° West 197 227 2,900 -900 Descending Southern California TRACON
Sun 10:23:53 PM 32.7000 -117.0833 270° West 185 213 1,900 -958 Descending Southern California TRACON
Sun 10:24:52 PM 32.7167 -117.1333 292° West 145 167 1,000 -825 Descending Southern California TRACON
Sun 10:25:13 PM 32.7217 -117.1403 311° West 152 175 800 -578 Descending Los Angeles Center
Sun 10:26:15 PM 32.7319 -117.1867 285° West 139 160 200 -581 Descending Los Angeles Center

Login

Don't have an account? Register now (free) for customized features, flight alerts, and more!